createdAt,value
2022-12-17T00:01:22.918Z,-3.97
2022-12-17T00:04:09.562Z,-3.99
2022-12-17T00:06:56.615Z,-4.02
2022-12-17T00:09:48.632Z,-3.97
2022-12-17T00:12:36.855Z,-3.94
2022-12-17T00:15:24.112Z,-3.93
2022-12-17T00:18:10.744Z,-3.95
2022-12-17T00:20:57.175Z,-4.00
2022-12-17T00:23:43.720Z,-4.01
2022-12-17T00:26:30.190Z,-3.99
2022-12-17T00:29:16.460Z,-4.01
2022-12-17T00:32:03.001Z,-4.05
2022-12-17T00:34:49.457Z,-4.04
2022-12-17T00:37:36.089Z,-3.99
2022-12-17T00:40:23.277Z,-4.02
2022-12-17T00:43:39.501Z,-4.06
2022-12-17T00:46:26.249Z,-4.02
2022-12-17T00:49:12.764Z,-3.93
2022-12-17T00:51:59.434Z,-3.97
2022-12-17T00:54:46.246Z,-3.99
2022-12-17T00:57:32.633Z,-4.01
2022-12-17T01:00:19.360Z,-4.04
2022-12-17T01:03:05.758Z,-4.02
2022-12-17T01:05:52.204Z,-3.97
2022-12-17T01:08:38.660Z,-3.96
2022-12-17T01:11:26.908Z,-3.97
2022-12-17T01:14:13.361Z,-3.96
2022-12-17T01:17:00.635Z,-3.94
2022-12-17T01:19:47.995Z,-3.91
2022-12-17T01:22:34.490Z,-3.92
2022-12-17T01:25:20.945Z,-3.96
2022-12-17T01:28:09.548Z,-3.99
2022-12-17T01:30:56.607Z,-4.00
2022-12-17T01:33:43.116Z,-4.02
2022-12-17T01:36:29.587Z,-4.04
2022-12-17T01:39:16.127Z,-4.09
2022-12-17T01:42:02.775Z,-4.08
2022-12-17T01:44:58.527Z,-4.06
2022-12-17T01:47:54.315Z,-4.06
2022-12-17T01:50:47.405Z,-4.10
2022-12-17T01:53:37.443Z,-4.09
2022-12-17T01:56:25.391Z,-4.12
2022-12-17T01:59:12.390Z,-4.09
2022-12-17T02:01:59.587Z,-4.14
2022-12-17T02:04:46.808Z,-4.20
2022-12-17T02:07:51.912Z,-4.22
2022-12-17T02:10:48.171Z,-4.23
2022-12-17T02:13:38.953Z,-4.25
2022-12-17T02:16:41.084Z,-4.23
2022-12-17T02:19:43.287Z,-4.32
2022-12-17T02:22:45.078Z,-4.34
2022-12-17T02:25:52.915Z,-4.37
2022-12-17T02:28:39.340Z,-4.38
2022-12-17T02:31:26.893Z,-4.40
2022-12-17T02:34:14.265Z,-4.40
2022-12-17T02:37:03.347Z,-4.42
2022-12-17T02:39:49.913Z,-4.38
2022-12-17T02:42:38.383Z,-4.45
2022-12-17T02:45:26.152Z,-4.48
2022-12-17T02:48:13.187Z,-4.51
2022-12-17T02:51:19.929Z,-4.53
2022-12-17T02:54:11.811Z,-4.52
2022-12-17T02:56:58.372Z,-4.45
2022-12-17T02:59:45.054Z,-4.45
2022-12-17T03:02:34.925Z,-4.46
2022-12-17T03:05:43.939Z,-4.35
2022-12-17T03:08:28.420Z,-4.25
2022-12-17T03:11:16.109Z,-4.20
2022-12-17T03:14:02.613Z,-4.21
2022-12-17T03:16:49.322Z,-4.19
2022-12-17T03:19:36.023Z,-4.13
2022-12-17T03:22:22.622Z,-4.06
2022-12-17T03:25:09.083Z,-3.97
2022-12-17T03:27:55.527Z,-4.03
2022-12-17T03:30:47.120Z,-4.14
2022-12-17T03:33:35.620Z,-4.20
2022-12-17T03:36:22.636Z,-4.20
2022-12-17T03:39:09.145Z,-4.23
2022-12-17T03:41:55.535Z,-4.32
2022-12-17T03:44:42.026Z,-4.36
2022-12-17T03:47:28.559Z,-4.40
2022-12-17T03:50:14.992Z,-4.44
2022-12-17T03:53:01.445Z,-4.42
2022-12-17T03:55:47.909Z,-4.40
2022-12-17T03:58:34.508Z,-4.46
2022-12-17T04:01:21.199Z,-4.46
2022-12-17T04:04:07.700Z,-4.45
2022-12-17T04:06:54.053Z,-4.44
2022-12-17T04:09:40.678Z,-4.52
2022-12-17T04:12:27.245Z,-4.58
2022-12-17T04:15:13.844Z,-4.59
2022-12-17T04:18:00.293Z,-4.56
2022-12-17T04:20:46.862Z,-4.57
2022-12-17T04:23:33.758Z,-4.59
2022-12-17T04:26:20.561Z,-4.61
2022-12-17T04:29:07.169Z,-4.60
2022-12-17T04:31:53.625Z,-4.60
2022-12-17T04:34:40.102Z,-4.61
2022-12-17T04:37:26.742Z,-4.62
2022-12-17T04:40:14.778Z,-4.58
2022-12-17T04:43:01.230Z,-4.60
2022-12-17T04:45:47.823Z,-4.57
2022-12-17T04:48:34.403Z,-4.57
2022-12-17T04:51:20.924Z,-4.61
2022-12-17T04:54:07.464Z,-4.60
2022-12-17T04:56:53.965Z,-4.55
2022-12-17T04:59:40.505Z,-4.50
2022-12-17T05:02:27.279Z,-4.51
2022-12-17T05:05:14.087Z,-4.56
2022-12-17T05:08:00.450Z,-4.53
2022-12-17T05:10:46.998Z,-4.47
2022-12-17T05:13:33.881Z,-4.45
2022-12-17T05:16:20.763Z,-4.44
2022-12-17T05:19:07.422Z,-4.46
2022-12-17T05:21:53.922Z,-4.51
2022-12-17T05:24:40.340Z,-4.49
2022-12-17T05:27:26.809Z,-4.48
2022-12-17T05:30:13.671Z,-4.49
2022-12-17T05:33:00.328Z,-4.55
2022-12-17T05:35:46.823Z,-4.57
2022-12-17T05:38:33.409Z,-4.53
2022-12-17T05:41:19.982Z,-4.53
2022-12-17T05:44:06.368Z,-4.55
2022-12-17T05:46:53.089Z,-4.62
2022-12-17T05:49:39.596Z,-4.60
2022-12-17T05:52:26.155Z,-4.59
2022-12-17T05:55:12.717Z,-4.57
2022-12-17T05:57:59.153Z,-4.63
2022-12-17T06:00:45.769Z,-4.64
2022-12-17T06:03:32.428Z,-4.62
2022-12-17T06:06:19.004Z,-4.59
2022-12-17T06:09:05.472Z,-4.55
2022-12-17T06:11:52.084Z,-4.54
2022-12-17T06:14:38.386Z,-4.55
2022-12-17T06:17:25.069Z,-4.58
2022-12-17T06:20:11.696Z,-4.61
2022-12-17T06:22:58.312Z,-4.63
2022-12-17T06:25:44.901Z,-4.63
2022-12-17T06:28:31.522Z,-4.64
2022-12-17T06:31:18.028Z,-4.65
2022-12-17T06:34:04.653Z,-4.63
2022-12-17T06:36:51.241Z,-4.63
2022-12-17T06:39:37.745Z,-4.66
2022-12-17T06:42:24.323Z,-4.70
2022-12-17T06:45:11.000Z,-4.74
2022-12-17T06:47:57.416Z,-4.69
2022-12-17T06:50:43.994Z,-4.67
2022-12-17T06:53:30.322Z,-4.65
2022-12-17T06:56:17.803Z,-4.65
2022-12-17T06:59:04.473Z,-4.63
2022-12-17T07:01:51.034Z,-4.60
2022-12-17T07:04:37.588Z,-4.61
2022-12-17T07:07:24.140Z,-4.61
2022-12-17T07:10:14.292Z,-4.61
2022-12-17T07:13:01.622Z,-4.52
2022-12-17T07:15:48.191Z,-4.51
2022-12-17T07:18:34.650Z,-4.50
2022-12-17T07:21:21.099Z,-4.53
2022-12-17T07:24:07.603Z,-4.53
2022-12-17T07:26:58.632Z,-4.51
2022-12-17T07:29:45.152Z,-4.51
2022-12-17T07:32:31.291Z,-4.56
2022-12-17T07:35:17.564Z,-4.59
2022-12-17T07:38:04.139Z,-4.56
2022-12-17T07:40:50.352Z,-4.54
2022-12-17T07:43:37.216Z,-4.60
2022-12-17T07:46:24.109Z,-4.66
2022-12-17T07:49:10.606Z,-4.65
2022-12-17T07:51:57.181Z,-4.60
2022-12-17T07:54:43.508Z,-4.65
2022-12-17T07:57:30.036Z,-4.63
2022-12-17T08:00:16.801Z,-4.64
2022-12-17T08:03:03.560Z,-4.60
2022-12-17T08:05:49.986Z,-4.61
2022-12-17T08:08:36.783Z,-4.65
2022-12-17T08:11:23.313Z,-4.66
2022-12-17T08:14:09.745Z,-4.65
2022-12-17T08:16:56.330Z,-4.63
2022-12-17T08:19:43.442Z,-4.67
2022-12-17T08:22:29.884Z,-4.71
2022-12-17T08:25:16.549Z,-4.74
2022-12-17T08:28:11.052Z,-4.76
2022-12-17T08:31:08.450Z,-4.84
2022-12-17T08:33:55.080Z,-4.83
2022-12-17T08:36:41.647Z,-4.76
2022-12-17T08:39:28.164Z,-4.77
2022-12-17T08:42:14.707Z,-4.83
2022-12-17T08:45:01.306Z,-4.83
2022-12-17T08:47:47.741Z,-4.77
2022-12-17T08:50:34.215Z,-4.74
2022-12-17T08:53:22.417Z,-4.77
2022-12-17T08:56:08.878Z,-4.75
2022-12-17T08:58:59.182Z,-4.73
2022-12-17T09:01:46.022Z,-4.73
2022-12-17T09:04:32.475Z,-4.74
2022-12-17T09:07:18.825Z,-4.80
2022-12-17T09:10:05.240Z,-4.78
2022-12-17T09:12:51.815Z,-4.75
2022-12-17T09:15:38.365Z,-4.82
2022-12-17T09:18:24.979Z,-4.83
2022-12-17T09:21:14.569Z,-4.85
2022-12-17T09:24:01.079Z,-4.84
2022-12-17T09:26:47.704Z,-4.81
2022-12-17T09:29:34.142Z,-4.80
2022-12-17T09:32:20.713Z,-4.76
2022-12-17T09:35:07.210Z,-4.75
2022-12-17T09:37:53.766Z,-4.78
2022-12-17T09:40:42.675Z,-4.73
2022-12-17T09:43:45.381Z,-4.69
2022-12-17T09:46:44.555Z,-4.60
2022-12-17T09:49:40.813Z,-4.57
2022-12-17T09:52:36.468Z,-4.58
2022-12-17T09:55:40.591Z,-4.52
2022-12-17T09:58:42.536Z,-4.42
2022-12-17T10:01:38.471Z,-4.41
2022-12-17T10:04:31.865Z,-4.40
2022-12-17T10:07:20.049Z,-4.37
2022-12-17T10:10:10.310Z,-4.28
2022-12-17T10:12:57.320Z,-4.14
2022-12-17T10:15:43.897Z,-4.04
2022-12-17T10:18:33.587Z,-3.97
2022-12-17T10:21:23.787Z,-3.91
2022-12-17T10:24:15.454Z,-3.92
2022-12-17T10:27:08.003Z,-4.01
2022-12-17T10:29:54.726Z,-3.97
2022-12-17T10:32:43.762Z,-3.92
2022-12-17T10:35:37.412Z,-3.98
2022-12-17T10:38:37.693Z,-4.02
2022-12-17T10:41:36.825Z,-4.01
2022-12-17T10:44:48.733Z,-4.04
2022-12-17T10:47:37.886Z,-4.00
2022-12-17T10:50:40.795Z,-4.03
2022-12-17T10:53:40.437Z,-4.05
2022-12-17T10:56:40.570Z,-4.05
2022-12-17T10:59:32.136Z,-4.00
2022-12-17T11:02:19.469Z,-3.94
2022-12-17T11:05:12.601Z,-3.87
2022-12-17T11:08:02.368Z,-3.88
2022-12-17T11:10:53.091Z,-3.87
2022-12-17T11:14:03.862Z,-3.84
2022-12-17T11:17:03.365Z,-3.89
2022-12-17T11:20:11.280Z,-4.03
2022-12-17T11:23:15.898Z,-4.11
2022-12-17T11:26:14.695Z,-4.09
2022-12-17T11:29:01.306Z,-4.23
2022-12-17T11:32:12.813Z,-4.34
2022-12-17T11:35:08.594Z,-4.29
2022-12-17T11:38:30.174Z,-4.31
2022-12-17T11:41:41.841Z,-4.31
2022-12-17T11:48:53.718Z,-4.22
2022-12-17T11:51:50.336Z,-4.21
2022-12-17T11:54:51.232Z,-4.22
2022-12-17T11:58:11.890Z,-4.19
2022-12-17T12:01:12.841Z,-4.14
2022-12-17T12:04:16.774Z,-4.12
2022-12-17T12:07:22.422Z,-4.16
2022-12-17T12:10:15.648Z,-4.18
2022-12-17T12:13:28.043Z,-4.17
2022-12-17T12:16:14.771Z,-4.14
2022-12-17T12:19:14.018Z,-4.20
2022-12-17T12:22:16.548Z,-4.25
2022-12-17T12:25:35.608Z,-4.22
2022-12-17T12:28:33.990Z,-4.28
2022-12-17T12:31:28.201Z,-4.30
2022-12-17T12:34:19.559Z,-4.29
2022-12-17T12:37:07.635Z,-4.27
2022-12-17T12:40:08.302Z,-4.27
2022-12-17T12:43:03.966Z,-4.32
2022-12-17T12:46:02.254Z,-4.28
2022-12-17T12:49:01.132Z,-4.30
2022-12-17T12:51:52.920Z,-4.28
2022-12-17T12:54:42.966Z,-4.29
2022-12-17T12:57:51.277Z,-4.26
2022-12-17T13:00:48.533Z,-4.20
2022-12-17T13:03:47.141Z,-4.21
2022-12-17T13:06:40.427Z,-4.20
2022-12-17T13:09:23.529Z,-4.19
2022-12-17T13:12:00.764Z,-4.18
2022-12-17T13:14:31.867Z,-4.22
2022-12-17T13:17:08.580Z,-4.25
2022-12-17T13:19:41.709Z,-4.24
2022-12-17T13:22:28.872Z,-4.18
2022-12-17T13:25:21.620Z,-4.16
2022-12-17T13:27:50.801Z,-4.14
2022-12-17T13:30:18.617Z,-4.14
2022-12-17T13:33:17.626Z,-4.13
2022-12-17T13:36:15.796Z,-4.12
2022-12-17T13:39:03.836Z,-4.15
2022-12-17T13:41:34.581Z,-4.18
2022-12-17T13:44:17.623Z,-4.22
2022-12-17T13:46:48.154Z,-4.20
2022-12-17T13:49:27.642Z,-4.19
2022-12-17T13:52:11.407Z,-4.16
2022-12-17T13:54:39.838Z,-4.20
2022-12-17T13:57:14.800Z,-4.17
2022-12-17T13:59:53.757Z,-4.19
2022-12-17T14:02:27.237Z,-4.28
2022-12-17T14:04:57.705Z,-4.28
2022-12-17T14:07:27.991Z,-4.23
2022-12-17T14:09:56.746Z,-4.21
2022-12-17T14:12:27.555Z,-4.23
2022-12-17T14:14:58.792Z,-4.23
2022-12-17T14:17:29.072Z,-4.22
2022-12-17T14:20:02.751Z,-4.14
2022-12-17T14:22:36.236Z,-4.08
2022-12-17T14:25:07.140Z,-4.10
2022-12-17T14:27:36.953Z,-4.12
2022-12-17T14:30:25.462Z,-4.11
2022-12-17T14:32:53.662Z,-4.11
2022-12-17T14:35:24.579Z,-4.11
2022-12-17T14:38:37.565Z,-4.14
2022-12-17T14:41:47.594Z,-4.23
2022-12-17T14:44:51.366Z,-4.28
2022-12-17T14:47:54.718Z,-4.30
2022-12-17T14:50:35.991Z,-4.24
2022-12-17T14:53:27.310Z,-4.26
2022-12-17T14:56:02.244Z,-4.28
2022-12-17T14:59:02.551Z,-4.37
2022-12-17T15:05:07.571Z,-4.30
2022-12-17T15:07:56.101Z,-4.31
2022-12-17T15:10:24.188Z,-4.37
2022-12-17T15:12:53.297Z,-4.33
2022-12-17T15:15:22.026Z,-4.29
2022-12-17T15:17:49.969Z,-4.26
2022-12-17T15:20:19.757Z,-4.26
2022-12-17T15:22:48.168Z,-4.29
2022-12-17T15:25:19.325Z,-4.30
2022-12-17T15:27:47.282Z,-4.28
2022-12-17T15:30:17.650Z,-4.23
2022-12-17T15:32:46.282Z,-4.22
2022-12-17T15:35:15.192Z,-4.22
2022-12-17T15:37:43.146Z,-4.22
2022-12-17T15:40:12.125Z,-4.21
2022-12-17T15:43:04.507Z,-4.22
2022-12-17T15:45:34.267Z,-4.20
2022-12-17T15:48:02.346Z,-4.17
2022-12-17T15:50:30.380Z,-4.16
2022-12-17T15:52:58.431Z,-4.20
2022-12-17T15:55:26.467Z,-4.25
2022-12-17T15:57:54.402Z,-4.27
2022-12-17T16:00:22.938Z,-4.28
2022-12-17T16:02:51.353Z,-4.28
2022-12-17T16:05:20.885Z,-4.27
2022-12-17T16:07:50.040Z,-4.27
2022-12-17T16:10:18.643Z,-4.32
2022-12-17T16:12:46.630Z,-4.33
2022-12-17T16:15:14.690Z,-4.30
2022-12-17T16:17:42.746Z,-4.27
2022-12-17T16:20:11.411Z,-4.26
2022-12-17T16:22:39.321Z,-4.27
2022-12-17T16:25:07.718Z,-4.31
2022-12-17T16:27:35.635Z,-4.36
2022-12-17T16:30:04.943Z,-4.39
2022-12-17T16:32:36.678Z,-4.46
2022-12-17T16:35:05.546Z,-4.43
2022-12-17T16:37:33.703Z,-4.47
2022-12-17T16:40:01.671Z,-4.50
2022-12-17T16:42:29.729Z,-4.50
2022-12-17T16:44:58.259Z,-4.51
2022-12-17T16:47:26.389Z,-4.54
2022-12-17T16:49:54.358Z,-4.52
2022-12-17T16:52:22.326Z,-4.54
2022-12-17T16:54:50.199Z,-4.54
2022-12-17T16:57:18.254Z,-4.61
2022-12-17T16:59:46.245Z,-4.67
2022-12-17T17:02:16.114Z,-4.65
2022-12-17T17:04:44.283Z,-4.61
2022-12-17T17:07:12.439Z,-4.65
2022-12-17T17:09:40.402Z,-4.67
2022-12-17T17:12:09.067Z,-4.67
2022-12-17T17:14:37.047Z,-4.66
2022-12-17T17:17:05.019Z,-4.67
2022-12-17T17:19:32.960Z,-4.71
2022-12-17T17:22:00.846Z,-4.75
2022-12-17T17:24:28.812Z,-4.82
2022-12-17T17:26:56.756Z,-4.86
2022-12-17T17:29:24.843Z,-4.90
2022-12-17T17:34:41.226Z,-4.97
2022-12-17T17:37:09.246Z,-5.00
2022-12-17T17:39:37.278Z,-5.02
2022-12-17T17:42:05.956Z,-4.99
2022-12-17T17:44:34.294Z,-5.00
2022-12-17T17:47:02.312Z,-5.04
2022-12-17T17:49:30.434Z,-5.09
2022-12-17T17:52:14.137Z,-5.13
2022-12-17T17:57:33.657Z,-5.17
2022-12-17T18:00:02.715Z,-5.15
2022-12-17T18:02:33.529Z,-5.15
2022-12-17T18:05:01.828Z,-5.13
2022-12-17T18:07:29.819Z,-5.12
2022-12-17T18:09:59.803Z,-5.18
2022-12-17T18:12:46.505Z,-5.20
2022-12-17T18:15:16.329Z,-5.22
2022-12-17T18:17:47.763Z,-5.18
2022-12-17T18:20:17.034Z,-5.20
2022-12-17T18:22:46.505Z,-5.25
2022-12-17T18:25:16.889Z,-5.29
2022-12-17T18:27:45.450Z,-5.29
2022-12-17T18:30:14.102Z,-5.39
2022-12-17T18:32:42.550Z,-5.34
2022-12-17T18:35:10.739Z,-5.35
2022-12-17T18:37:38.964Z,-5.44
2022-12-17T18:40:07.853Z,-5.47
2022-12-17T18:42:54.507Z,-5.46
2022-12-17T18:45:22.577Z,-5.53
2022-12-17T18:47:53.161Z,-5.58
2022-12-17T18:50:21.144Z,-5.67
2022-12-17T18:52:49.218Z,-5.67
2022-12-17T18:55:17.206Z,-5.68
2022-12-17T18:57:45.132Z,-5.74
2022-12-17T19:00:14.980Z,-5.73
2022-12-17T19:02:45.281Z,-5.76
2022-12-17T19:05:13.502Z,-5.77
2022-12-17T19:07:41.522Z,-5.79
2022-12-17T19:10:11.059Z,-5.81
2022-12-17T19:12:38.995Z,-5.81
2022-12-17T19:15:07.520Z,-5.80
2022-12-17T19:17:35.557Z,-5.77
2022-12-17T19:20:04.128Z,-5.73
2022-12-17T19:22:32.043Z,-5.79
2022-12-17T19:25:00.004Z,-5.81
2022-12-17T19:27:28.933Z,-5.79
2022-12-17T19:29:57.263Z,-5.78
2022-12-17T19:32:26.046Z,-5.80
2022-12-17T19:34:54.125Z,-5.82
2022-12-17T19:37:22.121Z,-5.82
2022-12-17T19:39:50.077Z,-5.85
2022-12-17T19:42:34.943Z,-5.80
2022-12-17T19:45:04.871Z,-5.81
2022-12-17T19:47:32.925Z,-5.81
2022-12-17T19:50:00.861Z,-5.81
2022-12-17T19:52:28.813Z,-5.77
2022-12-17T19:54:56.803Z,-5.74
2022-12-17T19:57:24.743Z,-5.74
2022-12-17T19:59:52.679Z,-5.74
2022-12-17T20:02:20.793Z,-5.78
2022-12-17T20:04:48.892Z,-5.78
2022-12-17T20:07:16.951Z,-5.75
2022-12-17T20:09:45.276Z,-5.74
2022-12-17T20:12:13.415Z,-5.76
2022-12-17T20:14:41.453Z,-5.75
2022-12-17T20:17:09.763Z,-5.73
2022-12-17T20:19:38.783Z,-5.72
2022-12-17T20:22:07.097Z,-5.71
2022-12-17T20:24:37.298Z,-5.74
2022-12-17T20:27:06.057Z,-5.74
2022-12-17T20:29:34.129Z,-5.73
2022-12-17T20:32:02.241Z,-5.69
2022-12-17T20:34:30.948Z,-5.72
2022-12-17T20:36:58.867Z,-5.76
2022-12-17T20:39:28.267Z,-5.73
2022-12-17T20:41:57.321Z,-5.74
2022-12-17T20:44:25.985Z,-5.73
2022-12-17T20:46:54.017Z,-5.72
2022-12-17T20:49:22.079Z,-5.72
2022-12-17T20:51:50.002Z,-5.71
2022-12-17T20:54:18.549Z,-5.66
2022-12-17T20:56:46.556Z,-5.63
2022-12-17T20:59:17.771Z,-5.59
2022-12-17T21:01:50.453Z,-5.66
2022-12-17T21:04:21.130Z,-5.69
2022-12-17T21:06:49.182Z,-5.70
2022-12-17T21:09:20.138Z,-5.64
2022-12-17T21:11:48.671Z,-5.62
2022-12-17T21:14:18.296Z,-5.64
2022-12-17T21:16:47.211Z,-5.63
2022-12-17T21:19:18.705Z,-5.58
2022-12-17T21:21:46.945Z,-5.55
2022-12-17T21:24:14.916Z,-5.54
2022-12-17T21:26:44.188Z,-5.56
2022-12-17T21:29:13.130Z,-5.57
2022-12-17T21:31:47.504Z,-5.55
2022-12-17T21:34:17.454Z,-5.51
2022-12-17T21:36:45.409Z,-5.54
2022-12-17T21:39:14.517Z,-5.57
2022-12-17T21:42:05.160Z,-5.58
2022-12-17T21:44:33.211Z,-5.55
2022-12-17T21:47:02.277Z,-5.53
2022-12-17T21:49:30.246Z,-5.57
2022-12-17T21:51:59.453Z,-5.58
2022-12-17T21:54:27.607Z,-5.58
2022-12-17T21:56:55.552Z,-5.55
2022-12-17T21:59:23.572Z,-5.55
2022-12-17T22:01:52.782Z,-5.55
2022-12-17T22:04:20.948Z,-5.56
2022-12-17T22:06:59.264Z,-5.57
2022-12-17T22:09:46.629Z,-5.53
2022-12-17T22:12:39.783Z,-5.54
2022-12-17T22:15:11.075Z,-5.55
2022-12-17T22:17:41.598Z,-5.57
2022-12-17T22:20:10.597Z,-5.57
2022-12-17T22:22:38.590Z,-5.52
2022-12-17T22:25:10.686Z,-5.55
2022-12-17T22:27:40.642Z,-5.60
2022-12-17T22:30:32.774Z,-5.60
2022-12-17T22:33:02.885Z,-5.59
2022-12-17T22:36:40.918Z,-5.57
2022-12-17T22:42:35.445Z,-5.56
2022-12-17T22:44:36.029Z,-5.56
2022-12-17T22:44:51.176Z,-5.56
2022-12-17T22:47:21.482Z,-5.53
2022-12-17T22:49:49.565Z,-5.52
2022-12-17T22:52:19.494Z,-5.55
2022-12-17T22:54:48.499Z,-5.58
2022-12-17T22:57:37.107Z,-5.57
2022-12-17T23:00:10.526Z,-5.56
2022-12-17T23:02:38.611Z,-5.58
2022-12-17T23:09:24.143Z,-5.61
2022-12-17T23:11:52.066Z,-5.60
2022-12-17T23:14:20.215Z,-5.60
2022-12-17T23:16:48.419Z,-5.60
2022-12-17T23:19:16.333Z,-5.62
2022-12-17T23:21:44.300Z,-5.59
2022-12-17T23:24:12.224Z,-5.56
2022-12-17T23:26:40.807Z,-5.54
2022-12-17T23:29:18.874Z,-5.58
2022-12-17T23:31:47.646Z,-5.60
2022-12-17T23:34:16.120Z,-5.58
2022-12-17T23:36:44.064Z,-5.56
2022-12-17T23:39:12.140Z,-5.55
2022-12-17T23:41:40.132Z,-5.57
2022-12-17T23:44:08.112Z,-5.58
2022-12-17T23:46:36.103Z,-5.55
2022-12-17T23:49:06.165Z,-5.52
2022-12-17T23:51:34.367Z,-5.51
2022-12-17T23:54:02.398Z,-5.53
2022-12-17T23:56:30.427Z,-5.56
2022-12-17T23:59:00.812Z,-5.55
